createdAt,value
2019-06-15T00:00:21.133Z,30.20
2019-06-15T00:01:00.838Z,30.20
2019-06-15T00:01:40.366Z,30.20
2019-06-15T00:02:19.529Z,30.10
2019-06-15T00:02:58.421Z,30.20
2019-06-15T00:03:37.669Z,30.20
2019-06-15T00:04:16.827Z,30.10
2019-06-15T00:04:55.749Z,30.20
2019-06-15T00:05:35.012Z,30.20
2019-06-15T00:06:14.464Z,30.20
2019-06-15T00:06:53.425Z,30.10
2019-06-15T00:07:32.880Z,30.10
2019-06-15T00:08:11.993Z,30.20
2019-06-15T00:08:50.634Z,30.10
2019-06-15T00:09:30.578Z,30.10
2019-06-15T00:10:10.476Z,30.10
2019-06-15T00:10:49.311Z,30.10
2019-06-15T00:11:28.755Z,30.10
2019-06-15T00:12:08.149Z,30.10
2019-06-15T00:12:47.192Z,30.20
2019-06-15T00:13:26.605Z,30.10
2019-06-15T00:14:06.051Z,30.10
2019-06-15T00:14:45.101Z,30.10
2019-06-15T00:15:24.413Z,30.10
2019-06-15T00:16:04.101Z,30.10
2019-06-15T00:16:42.828Z,30.10
2019-06-15T00:17:22.333Z,30.10
2019-06-15T00:18:02.365Z,30.10
2019-06-15T00:18:41.594Z,30.10
2019-06-15T00:19:21.247Z,30.10
2019-06-15T00:20:00.677Z,30.10
2019-06-15T00:20:39.336Z,30.10
2019-06-15T00:21:20.513Z,30.10
2019-06-15T00:22:00.060Z,30.20
2019-06-15T00:22:39.261Z,30.10
2019-06-15T00:23:28.098Z,30.10
2019-06-15T00:24:07.454Z,30.10
2019-06-15T00:24:46.186Z,30.10
2019-06-15T00:25:25.740Z,30.10
2019-06-15T00:26:05.070Z,30.10
2019-06-15T00:26:44.679Z,30.10
2019-06-15T00:27:24.165Z,30.10
2019-06-15T00:28:03.669Z,30.10
2019-06-15T00:28:42.469Z,30.10
2019-06-15T00:29:21.760Z,30.10
2019-06-15T00:30:01.588Z,30.10
2019-06-15T00:30:40.702Z,30.20
2019-06-15T00:31:20.373Z,30.20
2019-06-15T00:31:59.619Z,30.10
2019-06-15T00:32:38.021Z,30.10
2019-06-15T00:33:17.497Z,30.10
2019-06-15T00:33:56.921Z,30.10
2019-06-15T00:34:35.673Z,30.20
2019-06-15T00:35:15.117Z,30.10
2019-06-15T00:35:54.378Z,30.10
2019-06-15T00:36:33.350Z,30.10
2019-06-15T00:37:12.713Z,30.10
2019-06-15T00:37:52.235Z,30.10
2019-06-15T00:38:30.871Z,30.10
2019-06-15T00:39:11.230Z,30.10
2019-06-15T00:39:50.489Z,30.10
2019-06-15T00:40:29.128Z,30.10
2019-06-15T00:41:08.518Z,30.10
2019-06-15T00:41:48.144Z,30.10
2019-06-15T00:42:26.943Z,30.10
2019-06-15T00:43:06.105Z,30.10
2019-06-15T00:43:45.559Z,30.10
2019-06-15T00:44:24.389Z,30.10
2019-06-15T00:45:03.582Z,30.10
2019-06-15T00:45:43.023Z,30.10
2019-06-15T00:46:21.944Z,30.10
2019-06-15T00:47:00.947Z,30.10
2019-06-15T00:47:43.097Z,30.10
2019-06-15T00:48:22.597Z,30.10
2019-06-15T00:49:01.975Z,30.10
2019-06-15T00:49:41.472Z,30.10
2019-06-15T00:50:20.345Z,30.10
2019-06-15T00:51:00.082Z,30.10
2019-06-15T00:51:39.586Z,30.10
2019-06-15T00:52:18.310Z,30.10
2019-06-15T00:52:57.565Z,30.10
2019-06-15T00:53:36.881Z,30.10
2019-06-15T00:54:16.344Z,30.10
2019-06-15T00:54:55.994Z,30.10
2019-06-15T00:55:35.521Z,30.00
2019-06-15T00:56:14.397Z,30.00
2019-06-15T00:56:53.874Z,30.00
2019-06-15T00:57:33.238Z,30.10
2019-06-15T00:58:12.053Z,30.00
2019-06-15T00:58:51.144Z,30.10
2019-06-15T00:59:30.656Z,30.00
2019-06-15T01:00:10.070Z,30.10
2019-06-15T01:00:49.552Z,30.00
2019-06-15T01:01:28.660Z,30.00
2019-06-15T01:02:07.802Z,30.00
2019-06-15T01:02:47.431Z,30.00
2019-06-15T01:03:26.833Z,30.00
2019-06-15T01:04:06.019Z,30.00
2019-06-15T01:04:45.666Z,30.00
2019-06-15T01:05:25.194Z,30.00
2019-06-15T01:06:04.547Z,30.10
2019-06-15T01:06:44.272Z,30.00
2019-06-15T01:07:23.500Z,30.00
2019-06-15T01:08:02.460Z,30.00
2019-06-15T01:08:41.814Z,30.00
2019-06-15T01:09:21.382Z,30.00
2019-06-15T01:10:00.785Z,30.10
2019-06-15T01:10:40.324Z,30.10
2019-06-15T01:11:19.632Z,30.00
2019-06-15T01:11:58.568Z,30.00
2019-06-15T01:12:37.944Z,30.10
2019-06-15T01:13:17.771Z,30.00
2019-06-15T01:13:56.302Z,30.00
2019-06-15T01:14:35.850Z,30.00
2019-06-15T01:15:15.023Z,30.00
2019-06-15T01:15:54.062Z,30.00
2019-06-15T01:16:33.829Z,30.00
2019-06-15T01:17:13.113Z,30.00
2019-06-15T01:17:51.821Z,30.00
2019-06-15T01:18:31.571Z,30.00
2019-06-15T01:19:11.201Z,30.00
2019-06-15T01:19:50.106Z,30.00
2019-06-15T01:20:29.514Z,30.00
2019-06-15T01:21:09.530Z,30.00
2019-06-15T01:21:48.524Z,30.00
2019-06-15T01:22:28.312Z,30.00
2019-06-15T01:23:08.213Z,30.10
2019-06-15T01:23:47.145Z,30.00
2019-06-15T01:24:26.708Z,30.00
2019-06-15T01:25:06.227Z,30.00
2019-06-15T01:25:45.618Z,30.10
2019-06-15T01:26:25.173Z,30.10
2019-06-15T01:27:04.532Z,30.00
2019-06-15T01:27:43.299Z,30.10
2019-06-15T01:28:22.784Z,30.00
2019-06-15T01:29:02.290Z,30.00
2019-06-15T01:29:41.092Z,30.00
2019-06-15T01:30:20.006Z,30.00
2019-06-15T01:30:59.591Z,30.00
2019-06-15T01:31:38.033Z,30.00
2019-06-15T01:32:17.537Z,30.00
2019-06-15T01:32:57.325Z,30.00
2019-06-15T01:33:36.162Z,30.00
2019-06-15T01:34:16.599Z,30.00
2019-06-15T01:34:55.957Z,30.00
2019-06-15T01:35:34.656Z,30.00
2019-06-15T01:36:13.935Z,30.00
2019-06-15T01:36:53.449Z,30.00
2019-06-15T01:37:32.509Z,30.00
2019-06-15T01:38:11.707Z,30.00
2019-06-15T01:38:51.234Z,30.00
2019-06-15T01:39:30.052Z,30.00
2019-06-15T01:40:09.952Z,30.00
2019-06-15T01:40:49.563Z,30.00
2019-06-15T01:41:28.466Z,30.00
2019-06-15T01:42:07.932Z,30.00
2019-06-15T01:42:47.509Z,30.10
2019-06-15T01:43:26.642Z,30.10
2019-06-15T01:44:06.174Z,30.10
2019-06-15T01:44:45.646Z,30.10
2019-06-15T01:45:29.013Z,30.10
2019-06-15T01:46:08.585Z,30.10
2019-06-15T01:46:47.709Z,30.10
2019-06-15T01:47:26.650Z,30.10
2019-06-15T01:48:05.953Z,30.10
2019-06-15T01:48:45.237Z,30.10
2019-06-15T01:49:24.418Z,30.10
2019-06-15T01:50:03.881Z,30.10
2019-06-15T01:50:43.350Z,30.10
2019-06-15T01:51:22.179Z,30.10
2019-06-15T01:52:01.363Z,30.10
2019-06-15T01:52:40.935Z,30.10
2019-06-15T01:53:19.829Z,30.10
2019-06-15T01:53:59.480Z,30.10
2019-06-15T01:54:38.922Z,30.10
2019-06-15T01:55:21.248Z,30.10
2019-06-15T01:55:59.150Z,30.10
2019-06-15T01:56:39.157Z,30.10
2019-06-15T01:57:18.239Z,30.10
2019-06-15T01:57:58.110Z,30.10
2019-06-15T01:58:37.801Z,30.10
2019-06-15T01:59:16.899Z,30.10
2019-06-15T01:59:56.221Z,30.10
2019-06-15T02:00:36.450Z,30.10
2019-06-15T02:01:15.601Z,30.10
2019-06-15T02:01:54.987Z,30.10
2019-06-15T02:02:34.424Z,30.10
2019-06-15T02:03:13.248Z,30.10
2019-06-15T02:03:52.745Z,30.10
2019-06-15T02:04:32.177Z,30.10
2019-06-15T02:05:11.577Z,30.10
2019-06-15T02:05:51.101Z,30.10
2019-06-15T02:06:30.953Z,30.10
2019-06-15T02:07:09.523Z,30.10
2019-06-15T02:07:49.175Z,30.10
2019-06-15T02:08:28.769Z,30.10
2019-06-15T02:09:08.839Z,30.10
2019-06-15T02:09:48.258Z,30.10
2019-06-15T02:10:32.057Z,30.10
2019-06-15T02:11:10.673Z,30.10
2019-06-15T02:12:07.772Z,30.10
2019-06-15T02:12:47.778Z,30.10
2019-06-15T02:13:26.528Z,30.10
2019-06-15T02:14:06.057Z,30.10
2019-06-15T02:14:45.232Z,30.10
2019-06-15T02:15:24.303Z,30.10
2019-06-15T02:16:03.706Z,30.10
2019-06-15T02:16:43.415Z,30.10
2019-06-15T02:17:22.498Z,30.10
2019-06-15T02:18:02.269Z,30.10
2019-06-15T02:18:41.249Z,30.10
2019-06-15T02:19:20.216Z,30.10
2019-06-15T02:19:59.584Z,30.10
2019-06-15T02:20:39.112Z,30.10
2019-06-15T02:21:18.197Z,30.10
2019-06-15T02:21:57.577Z,30.10
2019-06-15T02:22:37.341Z,30.10
2019-06-15T02:23:16.842Z,30.10
2019-06-15T02:23:56.183Z,30.20
2019-06-15T02:24:35.385Z,30.10
2019-06-15T02:25:14.649Z,30.10
2019-06-15T02:25:55.041Z,30.10
2019-06-15T02:26:34.882Z,30.10
2019-06-15T02:27:13.513Z,30.10
2019-06-15T02:27:53.222Z,30.10
2019-06-15T02:28:32.457Z,30.10
2019-06-15T02:29:11.605Z,30.10
2019-06-15T02:29:51.075Z,30.10
2019-06-15T02:30:31.935Z,30.10
2019-06-15T02:31:10.775Z,30.10
2019-06-15T02:31:50.667Z,30.10
2019-06-15T02:32:31.424Z,30.10
2019-06-15T02:33:10.579Z,30.10
2019-06-15T02:33:49.631Z,30.10
2019-06-15T02:34:28.961Z,30.10
2019-06-15T02:35:08.456Z,30.10
2019-06-15T02:35:48.157Z,30.10
2019-06-15T02:36:27.562Z,30.10
2019-06-15T02:37:06.535Z,30.10
2019-06-15T02:37:45.965Z,30.10
2019-06-15T02:38:25.359Z,30.10
2019-06-15T02:39:04.081Z,30.10
2019-06-15T02:39:43.664Z,30.10
2019-06-15T02:40:23.294Z,30.10
2019-06-15T02:41:02.637Z,30.10
2019-06-15T02:41:42.282Z,30.10
2019-06-15T02:42:21.850Z,30.10
2019-06-15T02:43:01.360Z,30.10
2019-06-15T02:43:41.241Z,30.10
2019-06-15T02:44:21.014Z,30.10
2019-06-15T02:44:59.561Z,30.10
2019-06-15T02:45:38.881Z,30.10
2019-06-15T02:46:18.553Z,30.10
2019-06-15T02:46:57.140Z,30.10
2019-06-15T02:47:37.347Z,30.20
2019-06-15T02:48:17.208Z,30.10
2019-06-15T02:48:56.134Z,30.20
2019-06-15T02:49:35.874Z,30.10
2019-06-15T02:50:15.285Z,30.10
2019-06-15T02:50:54.194Z,30.10
2019-06-15T02:51:33.806Z,30.10
2019-06-15T02:52:13.146Z,30.10
2019-06-15T02:52:51.945Z,30.20
2019-06-15T02:53:31.607Z,30.20
2019-06-15T02:54:10.976Z,30.20
2019-06-15T02:54:49.993Z,30.20
2019-06-15T02:55:29.649Z,30.20
2019-06-15T02:56:09.075Z,30.20
2019-06-15T02:56:47.521Z,30.10
2019-06-15T02:57:26.777Z,30.20
2019-06-15T02:58:06.301Z,30.10
2019-06-15T02:58:45.541Z,30.20
2019-06-15T02:59:24.788Z,30.20
2019-06-15T03:00:04.385Z,30.20
2019-06-15T03:00:56.634Z,30.20
2019-06-15T03:01:36.185Z,30.20
2019-06-15T03:02:17.966Z,30.20
2019-06-15T03:02:56.991Z,30.20
2019-06-15T03:03:36.491Z,30.20
2019-06-15T03:04:15.929Z,30.20
2019-06-15T03:04:54.718Z,30.20
2019-06-15T03:05:34.019Z,30.20
2019-06-15T03:06:13.824Z,30.20
2019-06-15T03:06:52.880Z,30.20
2019-06-15T03:07:32.162Z,30.20
2019-06-15T03:08:11.703Z,30.20
2019-06-15T03:08:50.733Z,30.20
2019-06-15T03:09:31.767Z,30.20
2019-06-15T03:10:11.638Z,30.20
2019-06-15T03:10:50.764Z,30.20
2019-06-15T03:11:29.908Z,30.20
2019-06-15T03:12:09.486Z,30.20
2019-06-15T03:12:48.217Z,30.20
2019-06-15T03:13:27.701Z,30.20
2019-06-15T03:14:07.356Z,30.20
2019-06-15T03:14:46.337Z,30.20
2019-06-15T03:15:25.710Z,30.20
2019-06-15T03:16:05.327Z,30.20
2019-06-15T03:16:43.998Z,30.20
2019-06-15T03:17:23.758Z,30.20
2019-06-15T03:18:03.501Z,30.20
2019-06-15T03:18:42.665Z,30.20
2019-06-15T03:19:22.101Z,30.20
2019-06-15T03:20:01.695Z,30.20
2019-06-15T03:20:40.617Z,30.20
2019-06-15T03:21:20.157Z,30.20
2019-06-15T03:21:59.915Z,30.20
2019-06-15T03:22:38.850Z,30.20
2019-06-15T03:23:18.755Z,30.20
2019-06-15T03:23:58.327Z,30.20
2019-06-15T03:24:37.568Z,30.30
2019-06-15T03:25:17.058Z,30.30
2019-06-15T03:26:05.641Z,30.20
2019-06-15T03:26:38.902Z,30.20
2019-06-15T03:27:18.302Z,30.30
2019-06-15T03:27:57.727Z,30.20
2019-06-15T03:28:36.509Z,30.30
2019-06-15T03:29:15.668Z,30.20
2019-06-15T03:29:55.234Z,30.20
2019-06-15T03:30:34.131Z,30.30
2019-06-15T03:31:13.251Z,30.30
2019-06-15T03:31:53.661Z,30.30
2019-06-15T03:32:32.316Z,30.30
2019-06-15T03:33:12.042Z,30.30
2019-06-15T03:33:51.507Z,30.30
2019-06-15T03:34:30.499Z,30.30
2019-06-15T03:35:09.790Z,30.30
2019-06-15T03:36:08.397Z,30.30
2019-06-15T03:36:47.439Z,30.30
2019-06-15T03:37:26.992Z,30.30
2019-06-15T03:38:06.699Z,30.30
2019-06-15T03:38:45.273Z,30.30
2019-06-15T03:39:24.850Z,30.30
2019-06-15T03:40:04.613Z,30.30
2019-06-15T03:40:44.025Z,30.30
2019-06-15T03:41:23.395Z,30.30
2019-06-15T03:42:02.685Z,30.30
2019-06-15T03:42:41.563Z,30.30
2019-06-15T03:43:20.861Z,30.30
2019-06-15T03:44:00.377Z,30.30
2019-06-15T03:44:39.368Z,30.30
2019-06-15T03:45:18.821Z,30.30
2019-06-15T03:45:58.281Z,30.30
2019-06-15T03:46:37.410Z,30.30
2019-06-15T03:47:17.085Z,30.30
2019-06-15T03:47:56.469Z,30.30
2019-06-15T03:48:35.377Z,30.30
2019-06-15T03:49:14.343Z,30.30
2019-06-15T03:49:54.061Z,30.30
2019-06-15T03:50:33.927Z,30.30
2019-06-15T03:51:13.476Z,30.30
2019-06-15T03:51:53.153Z,30.30
2019-06-15T03:52:31.820Z,30.30
2019-06-15T03:53:11.389Z,30.40
2019-06-15T03:53:51.050Z,30.30
2019-06-15T03:54:29.982Z,30.30
2019-06-15T03:55:09.632Z,30.30
2019-06-15T03:55:49.402Z,30.30
2019-06-15T03:56:28.358Z,30.30
2019-06-15T03:57:07.353Z,30.30
2019-06-15T03:57:47.091Z,30.30
2019-06-15T03:58:25.862Z,30.40
2019-06-15T03:59:06.414Z,30.30
2019-06-15T03:59:46.778Z,30.40
2019-06-15T04:00:47.513Z,30.40
2019-06-15T04:01:36.314Z,30.30
2019-06-15T04:02:16.498Z,30.40
2019-06-15T04:02:55.249Z,30.40
2019-06-15T04:03:35.057Z,30.40
2019-06-15T04:04:14.446Z,30.40
2019-06-15T04:04:53.197Z,30.40
2019-06-15T04:05:35.935Z,30.40
2019-06-15T04:06:15.269Z,30.40
2019-06-15T04:06:54.260Z,30.40
2019-06-15T04:07:33.955Z,30.40
2019-06-15T04:08:13.171Z,30.40
2019-06-15T04:08:52.152Z,30.40
2019-06-15T04:09:31.655Z,30.40
2019-06-15T04:10:12.181Z,30.40
2019-06-15T04:10:51.540Z,30.40
2019-06-15T04:11:32.170Z,30.40
2019-06-15T04:12:11.665Z,30.40
2019-06-15T04:12:50.186Z,30.40
2019-06-15T04:13:29.762Z,30.40
2019-06-15T04:14:09.012Z,30.40
2019-06-15T04:14:48.077Z,30.40
2019-06-15T04:15:27.689Z,30.40
2019-06-15T04:16:07.270Z,30.40
2019-06-15T04:16:46.809Z,30.40
2019-06-15T04:17:26.635Z,30.40
2019-06-15T04:18:06.048Z,30.50
2019-06-15T04:18:45.301Z,30.40
2019-06-15T04:19:25.113Z,30.40
2019-06-15T04:20:04.455Z,30.50
2019-06-15T04:20:43.541Z,30.40
2019-06-15T04:21:22.938Z,30.40
2019-06-15T04:22:02.193Z,30.40
2019-06-15T04:22:41.257Z,30.50
2019-06-15T04:23:20.730Z,30.40
2019-06-15T04:24:00.380Z,30.40
2019-06-15T04:24:39.608Z,30.40
2019-06-15T04:25:19.684Z,30.50
2019-06-15T04:25:59.838Z,30.50
2019-06-15T04:26:40.529Z,30.40
2019-06-15T04:27:20.062Z,30.40
2019-06-15T04:27:59.258Z,30.40
2019-06-15T04:28:38.186Z,30.50
2019-06-15T04:29:17.589Z,30.40
2019-06-15T04:29:57.104Z,30.50
2019-06-15T04:30:35.850Z,30.40
2019-06-15T04:31:15.243Z,30.40
2019-06-15T04:31:54.830Z,30.50
2019-06-15T04:32:33.655Z,30.50
2019-06-15T04:33:13.448Z,30.50
2019-06-15T04:33:54.665Z,30.50
2019-06-15T04:34:33.244Z,30.50
2019-06-15T04:35:13.415Z,30.50
2019-06-15T04:35:53.065Z,30.50
2019-06-15T04:36:34.164Z,30.50
2019-06-15T04:37:13.846Z,30.50
2019-06-15T04:37:53.413Z,30.50
2019-06-15T04:38:32.317Z,30.50
2019-06-15T04:39:12.510Z,30.50
2019-06-15T04:39:52.481Z,30.50
2019-06-15T04:40:31.528Z,30.50
2019-06-15T04:41:11.306Z,30.50
2019-06-15T04:41:50.882Z,30.50
2019-06-15T04:42:30.113Z,30.50
2019-06-15T04:43:09.505Z,30.50
2019-06-15T04:43:48.929Z,30.50
2019-06-15T04:44:27.650Z,30.50
2019-06-15T04:45:08.054Z,30.50
2019-06-15T04:45:47.506Z,30.50
2019-06-15T04:46:26.451Z,30.50
2019-06-15T04:47:06.033Z,30.50
2019-06-15T04:47:45.793Z,30.50
2019-06-15T04:48:24.419Z,30.50
2019-06-15T04:49:03.602Z,30.50
2019-06-15T04:49:43.133Z,30.50
2019-06-15T04:50:21.984Z,30.50
2019-06-15T04:51:01.995Z,30.50
2019-06-15T04:51:41.698Z,30.50
2019-06-15T04:52:20.546Z,30.50
2019-06-15T04:53:00.065Z,30.50
2019-06-15T04:53:39.476Z,30.50
2019-06-15T04:54:18.818Z,30.50
2019-06-15T04:54:58.433Z,30.50
2019-06-15T04:55:37.818Z,30.50
2019-06-15T04:56:16.755Z,30.50
2019-06-15T04:56:56.789Z,30.50
2019-06-15T04:57:36.323Z,30.50
2019-06-15T04:58:15.995Z,30.50
2019-06-15T04:58:55.118Z,30.50
2019-06-15T04:59:34.574Z,30.50
2019-06-15T05:00:13.937Z,30.50
2019-06-15T05:00:53.354Z,30.50
2019-06-15T05:01:32.957Z,30.50
2019-06-15T05:02:11.930Z,30.50
2019-06-15T05:02:51.539Z,30.50
2019-06-15T05:03:30.966Z,30.50
2019-06-15T05:04:10.083Z,30.50
2019-06-15T05:04:50.062Z,30.50
2019-06-15T05:05:29.717Z,30.50
2019-06-15T05:06:08.729Z,30.50
2019-06-15T05:06:48.576Z,30.50
2019-06-15T05:07:27.740Z,30.50
2019-06-15T05:08:06.735Z,30.50
2019-06-15T05:08:47.138Z,30.50
2019-06-15T05:09:26.848Z,30.50
2019-06-15T05:10:05.741Z,30.50
2019-06-15T05:10:44.822Z,30.50
2019-06-15T05:11:24.418Z,30.50
2019-06-15T05:12:02.904Z,30.50
2019-06-15T05:12:42.809Z,30.50
2019-06-15T05:13:22.107Z,30.50
2019-06-15T05:14:01.690Z,30.50
2019-06-15T05:14:41.006Z,30.50
2019-06-15T05:15:20.668Z,30.50
2019-06-15T05:15:59.406Z,30.50
2019-06-15T05:16:39.139Z,30.50
2019-06-15T05:17:18.568Z,30.50
2019-06-15T05:17:57.761Z,30.50
2019-06-15T05:18:37.307Z,30.50
2019-06-15T05:19:16.689Z,30.50
2019-06-15T05:19:56.839Z,30.50
2019-06-15T05:20:36.276Z,30.50
2019-06-15T05:21:15.283Z,30.60
2019-06-15T05:21:54.442Z,30.60
2019-06-15T05:22:34.485Z,30.50
2019-06-15T05:23:14.197Z,30.60
2019-06-15T05:23:52.701Z,30.60
2019-06-15T05:24:32.791Z,30.60
2019-06-15T05:25:12.688Z,30.60
2019-06-15T05:25:51.377Z,30.60
2019-06-15T05:26:30.860Z,30.60
2019-06-15T05:27:10.697Z,30.60
2019-06-15T05:27:49.658Z,30.60
2019-06-15T05:28:29.042Z,30.60
2019-06-15T05:29:08.087Z,30.60
2019-06-15T05:29:47.267Z,30.60
2019-06-15T05:30:27.021Z,30.60
2019-06-15T05:31:06.653Z,30.60
2019-06-15T05:31:45.953Z,30.60
2019-06-15T05:32:25.632Z,30.60
2019-06-15T05:33:05.311Z,30.60
2019-06-15T05:33:44.374Z,30.60
2019-06-15T05:34:23.887Z,30.60
2019-06-15T05:35:03.303Z,30.60
2019-06-15T05:35:42.543Z,30.60
2019-06-15T05:36:22.218Z,30.60
2019-06-15T05:37:01.703Z,30.60
2019-06-15T05:37:40.529Z,30.60
2019-06-15T05:38:19.730Z,30.60
2019-06-15T05:39:00.012Z,30.60
2019-06-15T05:39:39.013Z,30.60
2019-06-15T05:40:18.813Z,30.60
2019-06-15T05:40:58.236Z,30.60
2019-06-15T05:41:36.853Z,30.60
2019-06-15T05:42:16.729Z,30.60
2019-06-15T05:42:56.185Z,30.60
2019-06-15T05:43:34.761Z,30.60
2019-06-15T05:44:14.156Z,30.60
2019-06-15T05:44:53.541Z,30.60
2019-06-15T05:45:32.651Z,30.60
2019-06-15T05:46:11.711Z,30.60
2019-06-15T05:46:51.313Z,30.60
2019-06-15T05:47:29.834Z,30.60
2019-06-15T05:48:09.242Z,30.60
2019-06-15T05:48:48.893Z,30.60
2019-06-15T05:49:28.037Z,30.60
2019-06-15T05:50:07.605Z,30.60
2019-06-15T05:50:47.501Z,30.60
2019-06-15T05:51:26.495Z,30.60
2019-06-15T05:52:06.157Z,30.60
2019-06-15T05:52:46.068Z,30.60
2019-06-15T05:53:25.276Z,30.60
2019-06-15T05:54:04.682Z,30.60
2019-06-15T05:54:46.406Z,30.70
2019-06-15T05:55:25.430Z,30.70
2019-06-15T05:56:04.847Z,30.70
2019-06-15T05:56:44.742Z,30.70
2019-06-15T05:57:23.585Z,30.60
2019-06-15T05:58:03.073Z,30.70
2019-06-15T05:58:42.805Z,30.70
2019-06-15T05:59:21.337Z,30.70
2019-06-15T06:00:01.116Z,30.60
2019-06-15T06:00:40.602Z,30.70
2019-06-15T06:01:19.910Z,30.70
2019-06-15T06:01:59.717Z,30.70
2019-06-15T06:02:39.320Z,30.70
2019-06-15T06:03:19.539Z,30.70
2019-06-15T06:03:58.465Z,30.70
2019-06-15T06:04:37.662Z,30.70
2019-06-15T06:05:16.325Z,30.70
2019-06-15T06:05:56.551Z,30.70
2019-06-15T06:06:36.030Z,30.70
2019-06-15T06:07:14.936Z,30.70
2019-06-15T06:07:54.533Z,30.70
2019-06-15T06:08:34.815Z,30.70
2019-06-15T06:09:13.681Z,30.70
2019-06-15T06:09:53.622Z,30.70
2019-06-15T06:10:33.026Z,30.70
2019-06-15T06:11:11.585Z,30.70
2019-06-15T06:11:51.160Z,30.70
2019-06-15T06:12:30.478Z,30.70
2019-06-15T06:13:09.486Z,30.70
2019-06-15T06:13:48.898Z,30.70
2019-06-15T06:14:28.197Z,30.70
2019-06-15T06:15:08.467Z,30.70
2019-06-15T06:15:50.241Z,30.70
2019-06-15T06:16:30.472Z,30.70
2019-06-15T06:17:09.256Z,30.70
2019-06-15T06:17:49.793Z,30.70
2019-06-15T06:18:29.417Z,30.70
2019-06-15T06:19:08.122Z,30.70
2019-06-15T06:19:47.634Z,30.70
2019-06-15T06:20:26.956Z,30.70
2019-06-15T06:21:05.690Z,30.70
2019-06-15T06:21:45.187Z,30.70
2019-06-15T06:22:24.703Z,30.70
2019-06-15T06:23:04.044Z,30.70
2019-06-15T06:23:43.652Z,30.70
2019-06-15T06:24:23.061Z,30.70
2019-06-15T06:25:03.273Z,30.70
2019-06-15T06:25:44.030Z,30.80
2019-06-15T06:26:24.056Z,30.70
2019-06-15T06:27:02.761Z,30.70
2019-06-15T06:27:42.378Z,30.80
2019-06-15T06:28:22.637Z,30.70
2019-06-15T06:29:11.796Z,30.70
2019-06-15T06:29:51.255Z,30.80
2019-06-15T06:30:31.206Z,30.70
2019-06-15T06:31:10.273Z,30.70
2019-06-15T06:31:49.622Z,30.80
2019-06-15T06:32:28.758Z,30.80
2019-06-15T06:33:07.713Z,30.70
2019-06-15T06:33:47.325Z,30.80
2019-06-15T06:34:26.735Z,30.80
2019-06-15T06:35:05.245Z,30.80
2019-06-15T06:35:44.824Z,30.80
2019-06-15T06:36:24.201Z,30.80
2019-06-15T06:37:04.129Z,30.80
2019-06-15T06:37:43.967Z,30.80
2019-06-15T06:38:23.184Z,30.80
2019-06-15T06:39:02.156Z,30.80
2019-06-15T06:39:41.724Z,30.80
2019-06-15T06:40:21.586Z,30.80
2019-06-15T06:41:00.440Z,30.80
2019-06-15T06:41:39.584Z,30.80
2019-06-15T06:42:18.994Z,30.80
2019-06-15T06:42:57.745Z,30.80
2019-06-15T06:43:37.379Z,30.80
2019-06-15T06:44:16.650Z,30.80
2019-06-15T06:44:55.762Z,30.80
2019-06-15T06:45:35.293Z,30.80
2019-06-15T06:46:14.609Z,30.80
2019-06-15T06:46:53.669Z,30.80
2019-06-15T06:47:33.377Z,30.80
2019-06-15T06:48:13.024Z,30.80
2019-06-15T06:48:51.977Z,30.80
2019-06-15T06:49:32.141Z,30.80
2019-06-15T06:50:13.295Z,30.80
2019-06-15T06:50:52.670Z,30.80
2019-06-15T06:51:31.618Z,30.80
2019-06-15T06:52:11.275Z,30.80
2019-06-15T06:52:50.434Z,30.80
2019-06-15T06:53:30.183Z,30.80
2019-06-15T06:54:09.409Z,30.80
2019-06-15T06:54:48.586Z,30.80
2019-06-15T06:55:27.785Z,30.80
2019-06-15T06:56:07.317Z,30.80
2019-06-15T06:56:46.066Z,30.80
2019-06-15T06:57:25.015Z,30.80
2019-06-15T06:58:04.459Z,30.80
2019-06-15T06:58:43.607Z,30.90
2019-06-15T06:59:23.399Z,30.90
2019-06-15T07:00:02.948Z,30.90
2019-06-15T07:00:41.368Z,30.90
2019-06-15T07:01:20.774Z,30.90
2019-06-15T07:02:00.183Z,30.90
2019-06-15T07:02:39.244Z,30.90
2019-06-15T07:03:18.850Z,30.90
2019-06-15T07:03:58.466Z,30.90
2019-06-15T07:04:37.261Z,30.90
2019-06-15T07:05:16.786Z,30.90
2019-06-15T07:05:55.816Z,30.90
2019-06-15T07:06:34.807Z,30.90
2019-06-15T07:07:14.357Z,30.90
2019-06-15T07:07:53.760Z,30.90
2019-06-15T07:08:32.978Z,30.90
2019-06-15T07:09:12.559Z,30.90
2019-06-15T07:09:51.958Z,30.90
2019-06-15T07:10:50.497Z,30.90
2019-06-15T07:11:29.628Z,30.90
2019-06-15T07:12:08.860Z,30.90
2019-06-15T07:12:48.516Z,30.90
2019-06-15T07:13:27.618Z,30.90
2019-06-15T07:14:07.358Z,30.90
2019-06-15T07:14:46.044Z,30.90
2019-06-15T07:15:25.681Z,30.90
2019-06-15T07:16:05.291Z,30.90
2019-06-15T07:16:44.610Z,30.90
2019-06-15T07:17:24.161Z,30.90
2019-06-15T07:18:04.104Z,30.90
2019-06-15T07:18:43.389Z,30.90
2019-06-15T07:19:23.035Z,30.90
2019-06-15T07:20:02.662Z,30.90
2019-06-15T07:20:41.974Z,30.90
2019-06-15T07:21:21.801Z,30.90
2019-06-15T07:22:02.592Z,30.90
2019-06-15T07:22:41.560Z,30.90
2019-06-15T07:23:20.884Z,30.90
2019-06-15T07:24:00.403Z,30.90
2019-06-15T07:24:39.559Z,30.90
2019-06-15T07:25:19.207Z,30.90
2019-06-15T07:25:58.849Z,30.90
2019-06-15T07:26:37.758Z,30.90
2019-06-15T07:27:17.408Z,31.00
2019-06-15T07:28:07.690Z,31.00
2019-06-15T07:28:37.177Z,30.90
2019-06-15T07:29:16.810Z,31.00
2019-06-15T07:29:56.175Z,31.00
2019-06-15T07:30:34.957Z,31.00
2019-06-15T07:31:14.435Z,31.00
2019-06-15T07:31:53.886Z,31.00
2019-06-15T07:32:33.054Z,31.00
2019-06-15T07:33:12.235Z,31.00
2019-06-15T07:33:51.904Z,31.00
2019-06-15T07:34:30.736Z,31.00
2019-06-15T07:35:10.143Z,31.00
2019-06-15T07:35:49.697Z,31.00
2019-06-15T07:36:28.626Z,31.00
2019-06-15T07:37:08.606Z,31.00
2019-06-15T07:37:48.286Z,31.00
2019-06-15T07:38:26.901Z,31.00
2019-06-15T07:39:06.519Z,31.00
2019-06-15T07:39:45.918Z,31.00
2019-06-15T07:40:25.372Z,31.00
2019-06-15T07:41:04.820Z,31.00
2019-06-15T07:41:44.311Z,31.00
2019-06-15T07:42:23.082Z,31.00
2019-06-15T07:43:02.546Z,31.00
2019-06-15T07:43:42.069Z,31.00
2019-06-15T07:44:20.842Z,31.00
2019-06-15T07:45:00.994Z,31.00
2019-06-15T07:45:40.748Z,31.00
2019-06-15T07:46:19.885Z,31.00
2019-06-15T07:46:59.593Z,31.00
2019-06-15T07:47:39.732Z,31.00
2019-06-15T07:48:18.914Z,31.00
2019-06-15T07:48:58.804Z,31.00
2019-06-15T07:49:38.361Z,31.00
2019-06-15T07:50:20.285Z,31.00
2019-06-15T07:50:59.757Z,31.00
2019-06-15T07:51:39.157Z,31.00
2019-06-15T07:52:19.829Z,31.00
2019-06-15T07:52:59.214Z,31.00
2019-06-15T07:53:38.724Z,31.00
2019-06-15T07:54:17.614Z,31.00
2019-06-15T07:54:56.872Z,31.00
2019-06-15T07:55:36.684Z,31.00
2019-06-15T07:56:16.249Z,31.00
2019-06-15T07:56:55.692Z,31.00
2019-06-15T07:57:35.201Z,31.00
2019-06-15T07:58:24.104Z,31.00
2019-06-15T07:58:55.313Z,31.00
2019-06-15T07:59:34.693Z,31.00
2019-06-15T08:00:13.907Z,31.00
2019-06-15T08:00:53.502Z,31.00
2019-06-15T08:01:33.192Z,31.00
2019-06-15T08:02:11.987Z,31.00
2019-06-15T08:02:51.589Z,31.00
2019-06-15T08:03:31.339Z,31.00
2019-06-15T08:04:10.305Z,31.00
2019-06-15T08:04:49.542Z,31.00
2019-06-15T08:05:28.914Z,31.00
2019-06-15T08:06:08.118Z,31.00
2019-06-15T08:06:47.707Z,31.00
2019-06-15T08:07:27.048Z,31.00
2019-06-15T08:08:05.797Z,31.00
2019-06-15T08:08:45.198Z,31.00
2019-06-15T08:09:24.947Z,31.10
2019-06-15T08:10:03.575Z,31.00
2019-06-15T08:10:43.186Z,31.00
2019-06-15T08:11:22.319Z,31.00
2019-06-15T08:12:00.982Z,31.00
2019-06-15T08:12:40.753Z,31.10
2019-06-15T08:13:20.838Z,31.10
2019-06-15T08:14:01.602Z,31.10
2019-06-15T08:14:41.037Z,31.10
2019-06-15T08:15:20.572Z,31.10
2019-06-15T08:15:59.649Z,31.10
2019-06-15T08:16:39.904Z,31.10
2019-06-15T08:17:19.483Z,31.10
2019-06-15T08:17:58.517Z,31.10
2019-06-15T08:18:38.224Z,31.10
2019-06-15T08:19:18.065Z,31.10
2019-06-15T08:19:57.134Z,31.10
2019-06-15T08:20:37.461Z,31.10
2019-06-15T08:21:17.211Z,31.10
2019-06-15T08:21:56.158Z,31.10
2019-06-15T08:22:36.170Z,31.10
2019-06-15T08:23:15.806Z,31.10
2019-06-15T08:23:54.645Z,31.10
2019-06-15T08:24:34.145Z,31.10
2019-06-15T08:25:13.770Z,31.10
2019-06-15T08:25:52.707Z,31.10
2019-06-15T08:26:32.346Z,31.10
2019-06-15T08:27:11.944Z,31.10
2019-06-15T08:27:50.578Z,31.10
2019-06-15T08:28:39.915Z,31.10
2019-06-15T08:29:12.461Z,31.10
2019-06-15T08:29:51.385Z,31.10